Time;durP1;ratioP1;P1;durP2;ratioP2;P2;SDS_P1;SDS_P2;PMS_P1;PMS_P2;Temp;Humidity;BMP_temperature;BMP_pressure;BME280_temperature;BME280_humidity;BME280_pressure;Samples;Min_cycle;Max_cycle;Signal;HPM_P1;HPM_P2
2022/02/05 00:04:10;;;;;;;2.33;1.00;;;7.40;70.60;;;;;;2350205;53;21049;-71
2022/02/05 00:06:40;;;;;;;3.67;1.00;;;7.30;70.50;;;;;;2341895;54;21001;-70
2022/02/05 00:09:37;;;;;;;2.28;0.95;;;7.20;70.40;;;;;;2342188;54;20942;-67
2022/02/05 00:12:33;;;;;;;2.95;1.10;;;7.10;70.30;;;;;;2320688;54;20963;-68
2022/02/05 00:15:23;;;;;;;2.67;1.05;;;7.10;70.40;;;;;;2341744;54;20930;-70
2022/02/05 00:39:56;;;;;;;2.78;1.10;;;6.50;69.90;;;;;;2342135;53;20939;-68
2022/02/05 00:42:32;;;;;;;3.00;1.27;;;6.40;69.80;;;;;;2480055;53;21471;-69
2022/02/05 00:45:06;;;;;;;3.92;1.50;;;6.30;69.80;;;;;;2341996;54;20938;-68
2022/02/05 00:47:33;;;;;;;2.53;1.30;;;6.20;69.70;;;;;;2341694;54;20934;-69
2022/02/05 00:50:01;;;;;;;4.30;1.48;;;6.10;69.70;;;;;;2341716;54;20966;-68
2022/02/05 00:52:27;;;;;;;4.00;1.50;;;6.10;69.90;;;;;;2342009;54;21073;-69
2022/02/05 00:55:02;;;;;;;3.08;1.20;;;6.00;69.90;;;;;;2318173;54;20995;-69
2022/02/05 01:00:18;;;;;;;4.25;1.20;;;5.90;70.10;;;;;;2423689;54;20977;-68
2022/02/05 01:02:45;;;;;;;3.25;1.17;;;5.80;70.20;;;;;;2314807;53;21731;-70
2022/02/05 01:05:11;;;;;;;2.05;1.00;;;5.80;70.30;;;;;;2314673;54;20952;-68
2022/02/05 01:07:39;;;;;;;3.90;1.20;;;5.70;70.40;;;;;;2314843;54;21504;-67
2022/02/05 01:10:06;;;;;;;2.80;1.40;;;5.70;70.50;;;;;;2313205;54;20949;-68
2022/02/05 01:12:54;;;;;;;2.37;1.00;;;5.60;70.50;;;;;;2316872;54;20980;-68
2022/02/05 01:15:24;;;;;;;3.05;1.25;;;5.60;70.50;;;;;;2339198;54;20945;-67
2022/02/05 01:18:00;;;;;;;2.65;1.10;;;5.50;70.40;;;;;;2494315;53;21489;-68
2022/02/05 01:24:19;;;;;;;4.12;1.48;;;5.40;70.50;;;;;;2374945;53;22268;-67
2022/02/05 01:26:53;;;;;;;3.37;1.40;;;5.40;70.50;;;;;;2347445;53;20942;-69
2022/02/05 01:29:36;;;;;;;3.37;1.30;;;5.30;70.60;;;;;;2343774;53;21000;-70
2022/02/05 01:32:08;;;;;;;2.80;1.20;;;5.30;70.70;;;;;;2347869;54;20952;-69
2022/02/05 01:34:45;;;;;;;2.62;1.30;;;5.20;70.70;;;;;;2345599;54;21080;-68
2022/02/05 01:51:10;;;;;;;4.78;1.92;;;5.00;70.80;;;;;;2345339;54;21024;-70
2022/02/05 01:56:55;;;;;;;4.22;1.70;;;4.90;70.80;;;;;;2324868;54;21762;-69
2022/02/05 01:59:48;;;;;;;3.75;1.50;;;4.90;71.00;;;;;;2345003;53;21504;-67
2022/02/05 02:05:07;;;;;;;5.53;1.65;;;4.80;70.90;;;;;;2309256;54;21585;-68
2022/02/05 02:11:36;;;;;;;4.57;1.40;;;4.70;70.90;;;;;;2312948;54;21125;-68
2022/02/05 02:18:05;;;;;;;3.40;1.40;;;4.70;71.00;;;;;;2342081;53;20976;-67
2022/02/05 02:21:00;;;;;;;4.12;1.40;;;4.60;70.90;;;;;;2348294;53;20981;-67
2022/02/05 02:28:48;;;;;;;2.80;1.10;;;4.60;71.10;;;;;;2526318;53;20990;-68
2022/02/05 02:31:27;;;;;;;4.12;1.40;;;4.50;71.00;;;;;;2344557;54;21014;-67
2022/02/05 02:33:57;;;;;;;4.50;1.50;;;4.50;71.20;;;;;;2342222;53;21000;-70
2022/02/05 02:40:28;;;;;;;4.57;1.17;;;4.40;71.20;;;;;;2342190;54;21052;-67
2022/02/05 02:43:02;;;;;;;3.25;1.12;;;4.40;71.20;;;;;;2340108;54;20945;-68
2022/02/05 02:45:29;;;;;;;3.97;1.20;;;4.40;71.30;;;;;;2418278;53;21833;-68
2022/02/05 02:47:55;;;;;;;3.42;1.20;;;4.40;71.40;;;;;;2361136;52;21435;-68
2022/02/05 02:56:22;;;;;;;2.87;1.10;;;4.40;71.50;;;;;;2338428;53;20949;-68
2022/02/05 02:58:07;;;;;;;3.22;1.12;;;4.30;71.50;;;;;;2345501;54;20946;-69
2022/02/05 03:00:34;;;;;;;5.60;1.08;;;4.30;71.40;;;;;;2342275;54;21040;-67
2022/02/05 03:03:01;;;;;;;3.87;1.10;;;4.30;71.50;;;;;;2342348;53;21017;-69
2022/02/05 03:05:27;;;;;;;2.42;1.08;;;4.30;71.60;;;;;;2355696;53;20949;-69
2022/02/05 03:07:53;;;;;;;5.07;1.50;;;4.20;71.60;;;;;;2342595;53;21505;-69
2022/02/05 03:10:23;;;;;;;4.62;1.33;;;4.20;71.70;;;;;;2342306;54;20980;-70
2022/02/05 03:12:49;;;;;;;2.75;1.17;;;4.20;71.60;;;;;;2379966;53;20936;-68
2022/02/05 03:15:19;;;;;;;2.58;1.00;;;4.20;71.70;;;;;;2342876;54;20936;-68
2022/02/05 03:18:07;;;;;;;2.22;1.00;;;4.20;71.60;;;;;;2314863;53;20969;-68
2022/02/05 03:20:34;;;;;;;3.47;0.90;;;4.20;71.60;;;;;;2318211;53;20972;-69
2022/02/05 03:23:00;;;;;;;2.67;0.90;;;4.20;71.60;;;;;;2587604;53;20954;-68
2022/02/05 03:25:30;;;;;;;3.60;1.10;;;4.20;71.50;;;;;;2342091;54;20943;-70
2022/02/05 03:27:56;;;;;;;3.83;1.50;;;4.20;71.30;;;;;;2550862;53;20946;-70
2022/02/05 03:30:23;;;;;;;2.90;1.15;;;4.10;71.00;;;;;;2341906;54;21030;-68
2022/02/05 03:32:50;;;;;;;3.95;1.25;;;4.10;71.00;;;;;;2324383;54;21018;-67
2022/02/05 03:35:16;;;;;;;3.10;1.15;;;4.10;71.00;;;;;;2332877;54;20967;-68
2022/02/05 03:37:43;;;;;;;2.30;1.00;;;4.10;71.10;;;;;;2321479;54;20966;-68
2022/02/05 03:40:10;;;;;;;2.47;0.93;;;4.00;71.20;;;;;;2342001;54;20910;-69
2022/02/05 03:42:36;;;;;;;3.37;1.00;;;4.00;71.40;;;;;;2341997;53;20965;-68
2022/02/05 03:45:09;;;;;;;3.58;1.00;;;4.00;71.60;;;;;;2342076;54;20998;-69
2022/02/05 03:47:36;;;;;;;4.50;1.10;;;4.00;71.70;;;;;;2335273;54;21860;-69
2022/02/05 03:50:04;;;;;;;2.58;1.00;;;4.00;71.90;;;;;;2325919;53;2232110;-68
2022/02/05 03:52:32;;;;;;;2.33;0.93;;;4.00;72.00;;;;;;2525328;52;21818;-70
2022/02/05 03:54:59;;;;;;;2.80;1.15;;;4.00;72.10;;;;;;2341882;54;21479;-68
2022/02/05 03:57:26;;;;;;;3.53;0.98;;;4.00;72.10;;;;;;2341952;54;21038;-69
2022/02/05 03:59:52;;;;;;;4.28;1.05;;;4.00;72.20;;;;;;2341755;54;20998;-69
2022/02/05 04:02:19;;;;;;;2.85;1.10;;;4.00;72.20;;;;;;2339040;54;21027;-69
2022/02/05 04:04:45;;;;;;;2.83;0.95;;;4.00;72.10;;;;;;2313955;54;20948;-69
2022/02/05 04:07:12;;;;;;;2.45;1.00;;;4.00;72.10;;;;;;2319391;54;21019;-70
2022/02/05 04:09:41;;;;;;;3.75;1.30;;;4.00;72.20;;;;;;2343469;54;21029;-67
2022/02/05 04:17:54;;;;;;;3.95;1.08;;;4.00;72.30;;;;;;2345473;54;21001;-67
2022/02/05 04:20:21;;;;;;;3.15;1.12;;;4.10;72.40;;;;;;2315739;54;20994;-69
2022/02/05 04:22:47;;;;;;;3.37;0.80;;;4.10;72.50;;;;;;2318308;54;20967;-68
2022/02/05 04:25:13;;;;;;;2.10;1.00;;;4.10;72.60;;;;;;2481287;53;20927;-68
2022/02/05 04:27:40;;;;;;;1.95;0.80;;;4.10;72.70;;;;;;2313366;53;20956;-68
2022/02/05 04:30:08;;;;;;;2.50;0.80;;;4.10;72.60;;;;;;2376493;53;20988;-69
2022/02/05 04:36:02;;;;;;;3.75;1.00;;;4.10;72.40;;;;;;2378598;53;20943;-69
2022/02/05 04:38:29;;;;;;;2.95;1.08;;;4.10;72.60;;;;;;2331503;53;20991;-70
2022/02/05 04:41:02;;;;;;;4.72;1.20;;;4.10;73.10;;;;;;2329488;54;21014;-68
2022/02/05 04:43:54;;;;;;;5.12;1.70;;;4.20;73.40;;;;;;2338419;54;21100;-70
2022/02/05 04:46:57;;;;;;;5.37;1.70;;;4.20;73.30;;;;;;2350020;55;21915;-68
2022/02/05 04:49:43;;;;;;;2.95;1.00;;;4.20;73.00;;;;;;2318168;54;21102;-68
2022/02/05 04:57:03;;;;;;;3.42;1.10;;;4.30;72.60;;;;;;2301423;54;21049;-68
2022/02/05 04:59:56;;;;;;;5.40;0.90;;;4.30;72.20;;;;;;2339145;54;20962;-68
2022/02/05 05:03:24;;;;;;;3.90;0.90;;;4.30;72.10;;;;;;2318748;53;21035;-68
2022/02/05 05:10:41;;;;;;;4.35;0.90;;;4.20;72.00;;;;;;2304544;54;21800;-68
2022/02/05 05:13:22;;;;;;;2.62;0.80;;;4.20;71.90;;;;;;2342839;53;21008;-69
2022/02/05 05:21:45;;;;;;;2.53;0.70;;;4.20;71.90;;;;;;2338137;55;20962;-69
2022/02/05 05:24:12;;;;;;;1.70;0.70;;;4.20;71.80;;;;;;2337821;55;20951;-69
2022/02/05 05:26:38;;;;;;;1.75;0.80;;;4.10;71.70;;;;;;2338058;54;20924;-67
2022/02/05 05:29:04;;;;;;;2.30;0.70;;;4.10;71.90;;;;;;2382446;53;21413;-69
2022/02/05 05:31:30;;;;;;;3.10;0.98;;;4.10;72.00;;;;;;2327046;53;20907;-70
2022/02/05 05:33:57;;;;;;;1.92;0.75;;;4.10;72.00;;;;;;2407665;53;21007;-70
2022/02/05 05:36:23;;;;;;;1.33;0.50;;;4.10;71.90;;;;;;2337852;54;20987;-68
2022/02/05 05:38:49;;;;;;;2.35;0.70;;;4.10;71.90;;;;;;2341062;53;21013;-70
2022/02/05 05:41:16;;;;;;;3.22;0.88;;;4.10;71.80;;;;;;2336940;53;20930;-67
2022/02/05 05:44:03;;;;;;;1.80;0.80;;;4.10;71.70;;;;;;2338310;54;21587;-69
2022/02/05 05:46:40;;;;;;;2.37;0.75;;;4.00;71.40;;;;;;2337475;54;21755;-67
2022/02/05 05:49:19;;;;;;;1.67;0.70;;;4.00;71.30;;;;;;2340431;53;20937;-68
2022/02/05 05:51:46;;;;;;;2.30;0.80;;;4.00;71.10;;;;;;2337833;54;21849;-71
2022/02/05 05:54:13;;;;;;;3.62;1.00;;;3.90;71.00;;;;;;2520502;53;20934;-67
2022/02/05 05:56:41;;;;;;;2.80;1.17;;;3.90;71.00;;;;;;2336218;55;21039;-67
2022/02/05 05:59:07;;;;;;;2.35;0.75;;;3.90;71.00;;;;;;2337739;55;20927;-67
2022/02/05 06:01:36;;;;;;;3.25;1.00;;;3.90;71.00;;;;;;2344601;53;21878;-70
2022/02/05 06:04:02;;;;;;;2.15;0.80;;;3.80;70.80;;;;;;2331577;53;20919;-67
2022/02/05 06:06:29;;;;;;;2.95;0.88;;;3.80;70.80;;;;;;2374787;52;21032;-69
2022/02/05 06:08:56;;;;;;;2.47;0.77;;;3.80;70.70;;;;;;2338281;54;20989;-70
2022/02/05 06:11:22;;;;;;;2.58;0.70;;;3.70;70.50;;;;;;2337591;55;20963;-69
2022/02/05 06:13:48;;;;;;;2.47;0.80;;;3.70;70.50;;;;;;2345304;53;20957;-68
2022/02/05 06:16:19;;;;;;;2.15;0.80;;;3.70;70.70;;;;;;2469332;53;20942;-68
2022/02/05 06:18:46;;;;;;;2.33;0.70;;;3.70;71.10;;;;;;2375804;53;20923;-71
2022/02/05 06:21:15;;;;;;;6.37;1.15;;;3.60;71.30;;;;;;2339574;53;20996;-67
2022/02/05 06:23:43;;;;;;;3.65;0.90;;;3.60;71.40;;;;;;2340265;55;20997;-68
2022/02/05 06:26:09;;;;;;;2.70;0.90;;;3.60;71.60;;;;;;2337379;55;21870;-68
2022/02/05 06:28:35;;;;;;;2.97;0.82;;;3.60;71.70;;;;;;2394715;53;20900;-67
2022/02/05 06:31:04;;;;;;;4.68;0.82;;;3.60;71.80;;;;;;2337730;54;20924;-70
2022/02/05 06:33:30;;;;;;;1.95;0.60;;;3.70;72.00;;;;;;2340600;53;20981;-69
2022/02/05 06:35:56;;;;;;;2.42;0.77;;;3.70;72.00;;;;;;2337483;53;21582;-68
2022/02/05 06:38:24;;;;;;;2.65;0.70;;;3.70;72.00;;;;;;2337265;55;21586;-67
2022/02/05 06:40:52;;;;;;;2.35;0.70;;;3.70;72.10;;;;;;2352806;53;20971;-69
2022/02/05 06:43:19;;;;;;;2.45;0.70;;;3.70;72.20;;;;;;2336607;54;20979;-69
2022/02/05 06:45:45;;;;;;;3.10;0.90;;;3.70;72.30;;;;;;2583156;53;21522;-70
2022/02/05 06:48:11;;;;;;;2.70;1.05;;;3.70;72.40;;;;;;2522799;54;21488;-70
2022/02/05 06:50:37;;;;;;;2.80;0.90;;;3.70;72.50;;;;;;2573856;53;21736;-67
2022/02/05 06:53:06;;;;;;;4.53;1.00;;;3.70;72.50;;;;;;2341188;54;21001;-70
2022/02/05 06:55:32;;;;;;;2.87;1.00;;;3.80;72.50;;;;;;2341854;54;21001;-68
2022/02/05 06:57:59;;;;;;;2.72;1.00;;;3.80;72.60;;;;;;2342099;53;20949;-67
2022/02/05 07:00:25;;;;;;;2.37;0.80;;;3.80;72.60;;;;;;2341345;54;21018;-68
2022/02/05 07:02:52;;;;;;;2.90;1.08;;;3.80;72.70;;;;;;2341890;54;20942;-67
2022/02/05 07:05:20;;;;;;;2.72;0.88;;;3.90;72.80;;;;;;2341741;54;20970;-68
2022/02/05 07:07:47;;;;;;;3.33;0.93;;;3.90;72.80;;;;;;2342177;53;20960;-69
2022/02/05 07:10:13;;;;;;;2.25;0.90;;;3.90;72.90;;;;;;2341091;53;20982;-69
2022/02/05 07:12:59;;;;;;;2.97;1.30;;;3.90;73.00;;;;;;2583897;53;21105;-67
2022/02/05 07:15:29;;;;;;;3.62;1.58;;;3.90;73.10;;;;;;2341455;54;20962;-68
2022/02/05 07:18:28;;;;;;;2.85;1.25;;;4.00;73.20;;;;;;2341761;54;21066;-68
2022/02/05 07:21:10;;;;;;;2.40;1.10;;;4.00;73.90;;;;;;2341871;54;20930;-69
2022/02/05 07:29:17;;;;;;;3.65;0.77;;;4.10;72.90;;;;;;2568043;53;20958;-69
2022/02/05 07:31:52;;;;;;;2.53;0.95;;;4.10;72.90;;;;;;2342643;54;21069;-67
2022/02/05 07:34:29;;;;;;;2.47;0.90;;;4.20;72.90;;;;;;2319003;54;20990;-69
2022/02/05 07:37:00;;;;;;;3.28;1.50;;;4.20;72.90;;;;;;2427806;53;20971;-68
2022/02/05 07:39:26;;;;;;;4.35;1.00;;;4.20;73.10;;;;;;2341542;53;20930;-69
2022/02/05 07:41:54;;;;;;;3.53;1.00;;;4.20;73.10;;;;;;2324185;54;20970;-69
2022/02/05 07:44:21;;;;;;;2.85;0.70;;;4.20;73.20;;;;;;2311780;55;20919;-69
2022/02/05 07:46:49;;;;;;;3.25;1.20;;;4.20;73.20;;;;;;2341592;54;20942;-67
2022/02/05 07:49:17;;;;;;;2.20;0.90;;;4.30;73.30;;;;;;2318388;54;20975;-68
2022/02/05 07:51:49;;;;;;;3.17;0.90;;;4.30;73.30;;;;;;2341793;54;21006;-70
2022/02/05 07:54:18;;;;;;;3.72;1.10;;;4.30;73.20;;;;;;2342502;53;20982;-67
2022/02/05 07:56:45;;;;;;;2.78;1.00;;;4.40;73.20;;;;;;2342503;54;20930;-69
2022/02/05 07:59:11;;;;;;;3.37;1.08;;;4.40;73.10;;;;;;2342476;54;20946;-69
2022/02/05 08:01:37;;;;;;;2.90;0.80;;;4.40;73.10;;;;;;2341600;54;21006;-69
2022/02/05 08:04:04;;;;;;;3.15;1.30;;;4.40;73.00;;;;;;2343719;54;20938;-67
2022/02/05 08:06:31;;;;;;;4.78;1.87;;;4.40;72.90;;;;;;2325195;54;20959;-68
2022/02/05 08:09:01;;;;;;;6.07;2.17;;;4.40;72.90;;;;;;2318187;53;20931;-71
2022/02/05 08:11:38;;;;;;;6.25;2.37;;;4.40;73.00;;;;;;2342624;54;21483;-67
2022/02/05 08:14:08;;;;;;;5.65;1.80;;;4.50;73.30;;;;;;2342510;54;20966;-69
2022/02/05 08:16:48;;;;;;;4.18;1.67;;;4.50;73.50;;;;;;2337663;54;21088;-70
2022/02/05 08:19:15;;;;;;;4.40;1.23;;;4.50;73.70;;;;;;2393352;53;20951;-69
2022/02/05 08:21:41;;;;;;;2.92;1.20;;;4.60;73.80;;;;;;2342635;53;20966;-69
2022/02/05 08:24:08;;;;;;;2.62;1.12;;;4.60;73.80;;;;;;2473189;53;21677;-70
2022/02/05 08:26:35;;;;;;;3.55;1.30;;;4.70;74.00;;;;;;2342117;54;21490;-69
2022/02/05 08:29:01;;;;;;;4.40;1.40;;;4.70;74.00;;;;;;2342153;54;21443;-69
2022/02/05 08:31:28;;;;;;;3.78;1.52;;;4.80;74.10;;;;;;2491274;53;20954;-71
2022/02/05 08:33:54;;;;;;;4.07;1.65;;;4.80;74.20;;;;;;2423792;53;20922;-70
2022/02/05 08:36:22;;;;;;;4.10;1.67;;;4.90;74.40;;;;;;2342739;54;20993;-70
2022/02/05 08:38:49;;;;;;;6.78;2.40;;;4.90;74.50;;;;;;2342391;54;21494;-69
2022/02/05 08:41:16;;;;;;;3.85;1.98;;;5.00;74.60;;;;;;2339709;54;21773;-68
2022/02/05 08:43:42;;;;;;;5.18;1.98;;;5.00;74.70;;;;;;2370258;53;20942;-70
2022/02/05 08:46:08;;;;;;;5.85;1.73;;;5.10;74.90;;;;;;2341837;54;21030;-69
2022/02/05 08:48:34;;;;;;;4.70;1.85;;;5.10;74.90;;;;;;2342234;54;20942;-71
2022/02/05 08:51:04;;;;;;;5.30;2.58;;;5.20;75.00;;;;;;2326822;54;21043;-69
2022/02/05 08:53:31;;;;;;;6.43;2.50;;;5.30;75.30;;;;;;2336013;54;20978;-71
2022/02/05 08:55:59;;;;;;;4.47;2.20;;;5.40;75.40;;;;;;2327488;54;21452;-68
2022/02/05 08:58:27;;;;;;;6.78;2.60;;;5.40;75.40;;;;;;2487542;53;20983;-70
2022/02/05 09:06:31;;;;;;;6.75;3.08;;;5.60;75.50;;;;;;2333649;54;20988;-70
2022/02/05 09:09:09;;;;;;;4.37;2.20;;;5.70;75.70;;;;;;2437306;53;21014;-71
2022/02/05 09:15:06;;;;;;;9.65;3.50;;;5.90;76.10;;;;;;2403646;54;20988;-68
2022/02/05 09:17:34;;;;;;;8.90;4.40;;;6.00;76.10;;;;;;2313119;54;20996;-71
2022/02/05 09:20:01;;;;;;;7.68;3.80;;;6.10;76.30;;;;;;2334729;54;20977;-69
2022/02/05 09:22:29;;;;;;;5.95;3.22;;;6.10;76.20;;;;;;2334439;54;20970;-69
2022/02/05 09:24:58;;;;;;;6.35;3.97;;;6.20;76.30;;;;;;2322816;54;20963;-69
2022/02/05 09:27:27;;;;;;;8.15;4.20;;;6.30;76.50;;;;;;2337551;54;21491;-70
2022/02/05 09:30:03;;;;;;;6.50;3.67;;;6.40;76.50;;;;;;2340579;54;20946;-70
2022/02/05 09:32:29;;;;;;;5.62;2.72;;;6.50;76.60;;;;;;2341399;54;20997;-72
2022/02/05 09:34:56;;;;;;;5.68;2.92;;;6.60;76.90;;;;;;2587102;53;21034;-71
2022/02/05 09:37:22;;;;;;;6.75;3.42;;;6.70;78.20;;;;;;2410084;53;20950;-69
2022/02/05 09:39:48;;;;;;;5.65;3.22;;;6.90;80.60;;;;;;2342085;54;20918;-71
2022/02/05 09:42:15;;;;;;;8.38;3.83;;;7.20;82.70;;;;;;2345300;53;20962;-72
2022/02/05 09:44:45;;;;;;;8.32;4.70;;;7.60;84.20;;;;;;2319769;54;20935;-69
2022/02/05 09:47:11;;;;;;;7.55;3.55;;;8.10;85.50;;;;;;2347094;53;20914;-70
2022/02/05 09:49:38;;;;;;;6.75;3.47;;;8.50;86.00;;;;;;2551433;53;20938;-70
2022/02/05 09:52:14;;;;;;;4.93;2.87;;;9.00;86.00;;;;;;2328228;54;20951;-72
2022/02/05 09:54:41;;;;;;;4.10;1.90;;;9.40;85.70;;;;;;2327606;54;20931;-71
2022/02/05 09:57:07;;;;;;;4.55;1.80;;;9.80;85.60;;;;;;2327888;54;20930;-72
2022/02/05 09:59:47;;;;;;;4.07;1.62;;;10.10;83.30;;;;;;2353635;53;20954;-69
2022/02/05 10:02:30;;;;;;;3.17;1.45;;;10.50;81.70;;;;;;2343163;57;21058;-72
2022/02/05 10:05:07;;;;;;;3.50;1.27;;;10.80;80.20;;;;;;2386024;53;21129;-69
2022/02/05 10:08:08;;;;;;;3.80;1.40;;;11.00;79.40;;;;;;2416191;53;20983;-69
2022/02/05 10:10:41;;;;;;;3.62;1.20;;;11.20;76.30;;;;;;2341471;54;20966;-70
2022/02/05 10:13:11;;;;;;;3.62;1.17;;;11.20;76.50;;;;;;2320488;54;20962;-71
2022/02/05 10:15:39;;;;;;;3.17;1.05;;;11.20;76.20;;;;;;2342482;54;20962;-70
2022/02/05 10:18:07;;;;;;;4.57;1.33;;;11.20;76.40;;;;;;2342242;54;20972;-71
2022/02/05 10:20:33;;;;;;;4.70;1.23;;;11.20;76.70;;;;;;2342197;54;21005;-70
2022/02/05 10:23:08;;;;;;;4.20;1.10;;;11.20;77.10;;;;;;2342021;54;20958;-70
2022/02/05 10:25:34;;;;;;;3.78;1.55;;;11.30;77.10;;;;;;2401796;53;21042;-72
2022/02/05 10:28:00;;;;;;;4.82;1.33;;;11.50;79.20;;;;;;2331967;54;21000;-71
2022/02/05 10:30:29;;;;;;;3.50;1.35;;;11.70;81.00;;;;;;2341664;54;20970;-70
2022/02/05 10:33:31;;;;;;;4.22;1.30;;;12.00;82.00;;;;;;2341644;54;21026;-73
2022/02/05 10:36:21;;;;;;;4.17;1.47;;;12.30;81.40;;;;;;2338737;54;21557;-70
2022/02/05 10:38:57;;;;;;;4.85;1.27;;;12.60;77.30;;;;;;2342744;54;20998;-71
2022/02/05 10:45:50;;;;;;;2.58;1.08;;;12.80;75.90;;;;;;2343141;54;21319;-69
2022/02/05 10:48:25;;;;;;;3.62;1.23;;;13.10;76.00;;;;;;2342528;54;20970;-71
2022/02/05 10:50:54;;;;;;;2.78;0.88;;;13.10;73.80;;;;;;2344283;54;21053;-70
2022/02/05 10:53:32;;;;;;;3.05;1.40;;;13.30;74.70;;;;;;2342385;53;20938;-72
2022/02/05 10:56:24;;;;;;;5.07;1.27;;;13.30;74.60;;;;;;2341601;54;20958;-73
2022/02/05 10:59:15;;;;;;;4.05;1.08;;;13.40;74.70;;;;;;2344335;53;20950;-73
2022/02/05 11:07:18;;;;;;;2.40;1.08;;;13.70;73.40;;;;;;2346478;53;21027;-70
2022/02/05 11:09:49;;;;;;;4.85;1.45;;;13.70;72.30;;;;;;2342207;54;21021;-69
2022/02/05 11:20:35;;;;;;;4.00;1.00;;;13.80;73.20;;;;;;2342257;54;20998;-70
2022/02/05 11:23:07;;;;;;;3.08;1.05;;;13.80;73.50;;;;;;2342287;54;21586;-74
2022/02/05 11:25:38;;;;;;;7.45;1.52;;;13.80;73.90;;;;;;2319988;54;21130;-68
2022/02/05 11:28:04;;;;;;;3.97;1.23;;;13.90;74.20;;;;;;2588555;53;21010;-70
2022/02/05 11:30:51;;;;;;;5.15;1.27;;;13.90;74.70;;;;;;2342336;54;20954;-70
2022/02/05 11:33:22;;;;;;;3.00;1.00;;;14.00;72.00;;;;;;2343143;54;21220;-71
2022/02/05 11:39:17;;;;;;;4.22;1.80;;;14.00;73.10;;;;;;2343509;54;21042;-71
2022/02/05 11:41:45;;;;;;;4.32;1.75;;;14.00;71.90;;;;;;2585959;53;21022;-70
2022/02/05 11:44:54;;;;;;;7.40;1.52;;;13.90;71.40;;;;;;2342349;53;20954;-71
2022/02/05 11:47:24;;;;;;;3.53;1.15;;;13.90;67.70;;;;;;2491493;53;20944;-72
2022/02/05 11:50:35;;;;;;;5.43;1.10;;;13.80;70.00;;;;;;2318890;54;21701;-71
2022/02/05 11:53:07;;;;;;;3.53;1.00;;;13.70;67.40;;;;;;2446259;53;20942;-70
2022/02/05 11:55:34;;;;;;;3.90;1.58;;;13.70;69.80;;;;;;2342527;54;21101;-69
2022/02/05 11:58:03;;;;;;;6.05;1.37;;;13.60;71.20;;;;;;2342940;53;20958;-70
2022/02/05 12:00:40;;;;;;;7.35;1.50;;;13.60;71.50;;;;;;2342506;54;20923;-72
2022/02/05 12:03:38;;;;;;;3.85;1.60;;;13.60;71.70;;;;;;2382372;53;20906;-69
2022/02/05 12:06:06;;;;;;;4.07;1.37;;;13.60;69.80;;;;;;2342477;54;21527;-72
2022/02/05 12:08:45;;;;;;;5.95;1.90;;;13.50;70.60;;;;;;2328962;53;21059;-69
2022/02/05 12:11:25;;;;;;;5.25;1.80;;;13.50;69.20;;;;;;2338659;54;21006;-71
2022/02/05 12:14:10;;;;;;;6.65;1.77;;;13.50;68.90;;;;;;2342749;54;21356;-71
2022/02/05 12:16:37;;;;;;;6.18;1.80;;;13.40;68.90;;;;;;2342765;54;20944;-70
2022/02/05 12:19:17;;;;;;;5.18;1.90;;;13.30;70.40;;;;;;2319146;54;20951;-73
2022/02/05 12:26:31;;;;;;;6.28;1.60;;;13.30;68.40;;;;;;2342256;53;21085;-71
2022/02/05 12:29:02;;;;;;;4.25;1.37;;;13.40;70.20;;;;;;2319836;54;20963;-68
2022/02/05 12:31:37;;;;;;;4.37;1.50;;;13.50;71.90;;;;;;2342449;54;20950;-73
2022/02/05 12:34:12;;;;;;;4.65;1.37;;;13.50;70.30;;;;;;2343449;54;21030;-73
2022/02/05 12:36:44;;;;;;;4.80;1.42;;;13.50;70.80;;;;;;2342983;53;21419;-72
2022/02/05 12:39:24;;;;;;;5.00;1.40;;;13.60;71.30;;;;;;2317606;54;21504;-72
2022/02/05 12:41:53;;;;;;;4.97;1.37;;;13.70;71.20;;;;;;2342321;54;21316;-71
2022/02/05 12:44:20;;;;;;;3.55;1.42;;;13.80;71.20;;;;;;2439697;53;20950;-69
2022/02/05 12:46:54;;;;;;;7.45;1.62;;;13.80;70.30;;;;;;2317046;54;20953;-71
2022/02/05 12:49:27;;;;;;;6.78;1.77;;;13.80;67.60;;;;;;2337712;54;21010;-71
2022/02/05 12:51:56;;;;;;;5.28;1.45;;;13.70;67.90;;;;;;2415202;53;21487;-72
2022/02/05 12:54:24;;;;;;;6.25;1.33;;;13.70;69.10;;;;;;2522228;53;20970;-71
2022/02/05 12:56:52;;;;;;;4.10;1.40;;;13.80;70.10;;;;;;2465638;53;21018;-76
2022/02/05 12:59:27;;;;;;;4.60;1.30;;;13.80;69.90;;;;;;2338693;54;21018;-76
2022/02/05 13:02:03;;;;;;;6.47;1.35;;;13.80;70.30;;;;;;2319096;53;21090;-75
2022/02/05 13:05:06;;;;;;;3.45;1.10;;;13.90;70.30;;;;;;2341112;53;20946;-77
2022/02/05 13:07:38;;;;;;;3.65;1.27;;;14.00;69.50;;;;;;2342547;54;21010;-76
2022/02/05 13:10:07;;;;;;;6.70;1.75;;;14.10;72.80;;;;;;2320850;54;20981;-75
2022/02/05 13:16:10;;;;;;;8.10;1.60;;;14.50;71.10;;;;;;2316144;53;20957;-74
2022/02/05 13:18:47;;;;;;;4.45;1.60;;;14.60;72.10;;;;;;2315294;54;21069;-76
2022/02/05 13:26:57;;;;;;;3.58;1.15;;;14.60;67.80;;;;;;2464136;53;20912;-76
2022/02/05 13:29:57;;;;;;;4.75;1.20;;;14.40;66.60;;;;;;2459060;53;20927;-76
2022/02/05 13:35:09;;;;;;;5.15;1.67;;;14.20;68.60;;;;;;2347434;53;20973;-75
2022/02/05 13:37:49;;;;;;;6.15;1.62;;;14.20;70.10;;;;;;2337481;53;20927;-75
2022/02/05 13:40:21;;;;;;;8.70;2.05;;;14.20;70.80;;;;;;2346726;53;20946;-75
2022/02/05 13:42:50;;;;;;;3.55;1.40;;;14.30;70.30;;;;;;2337632;53;21007;-74
2022/02/05 13:45:32;;;;;;;4.45;1.77;;;14.40;71.00;;;;;;2337613;55;21503;-76
2022/02/05 13:48:02;;;;;;;5.60;1.73;;;14.50;70.00;;;;;;2555474;53;20971;-76
2022/02/05 13:50:31;;;;;;;4.28;1.37;;;14.50;71.10;;;;;;2341393;53;21029;-74
2022/02/05 13:53:02;;;;;;;3.72;1.40;;;14.60;70.10;;;;;;2440876;53;20915;-76
2022/02/05 13:55:35;;;;;;;5.57;1.20;;;14.60;70.20;;;;;;2374581;53;20931;-75
2022/02/05 13:58:07;;;;;;;4.30;1.55;;;14.70;69.70;;;;;;2337651;54;21286;-76
2022/02/05 14:01:06;;;;;;;3.17;1.40;;;14.70;69.90;;;;;;2337949;55;20975;-76
2022/02/05 14:03:38;;;;;;;7.45;1.77;;;14.70;67.50;;;;;;2338600;55;20979;-76
2022/02/05 14:06:06;;;;;;;4.82;1.30;;;14.70;69.30;;;;;;2341504;53;20919;-75
2022/02/05 14:08:44;;;;;;;4.20;1.20;;;14.60;69.50;;;;;;2341867;54;20896;-76
2022/02/05 14:12:18;;;;;;;3.53;1.00;;;14.60;67.90;;;;;;2357635;53;21078;-75
2022/02/05 14:14:59;;;;;;;;;;;14.60;68.70;;;;;;2349074;53;20982;-76
2022/02/05 14:17:25;;;;;;;3.10;1.58;;;14.50;68.00;;;;;;2314140;54;20370;-76
2022/02/05 14:20:04;;;;;;;6.62;1.45;;;14.40;69.90;;;;;;2341330;55;20997;-76
2022/02/05 14:22:35;;;;;;;4.00;1.23;;;14.40;68.10;;;;;;2439965;53;20978;-77
2022/02/05 14:25:33;;;;;;;5.87;1.23;;;14.30;68.50;;;;;;2340630;53;20986;-75
2022/02/05 14:28:16;;;;;;;4.45;1.10;;;14.20;67.30;;;;;;2357197;53;21058;-77
2022/02/05 14:31:01;;;;;;;6.50;1.30;;;14.10;67.30;;;;;;2429391;53;20959;-75
2022/02/05 14:33:41;;;;;;;4.05;1.60;;;14.00;67.60;;;;;;2337847;54;20988;-76
2022/02/05 14:36:23;;;;;;;3.70;1.10;;;13.90;67.50;;;;;;2340086;54;20984;-77
2022/02/05 14:43:55;;;;;;;5.15;1.10;;;13.80;67.80;;;;;;2350212;53;21704;-76
2022/02/05 14:46:21;;;;;;;7.95;1.55;;;13.70;68.70;;;;;;2343595;54;21007;-76
2022/02/05 14:48:48;;;;;;;5.37;1.40;;;13.60;69.00;;;;;;2401109;53;20937;-77
2022/02/05 14:51:15;;;;;;;5.28;1.35;;;13.50;68.40;;;;;;2419970;53;21092;-76
2022/02/05 14:53:41;;;;;;;4.05;1.42;;;13.50;68.40;;;;;;2412390;53;21009;-76
2022/02/05 14:56:08;;;;;;;3.45;1.70;;;13.40;68.40;;;;;;2342994;53;21748;-76
2022/02/05 14:58:34;;;;;;;4.45;1.40;;;13.40;68.40;;;;;;2350055;53;21039;-76
2022/02/05 15:01:03;;;;;;;4.55;1.15;;;13.30;68.10;;;;;;2350275;53;20998;-76
2022/02/05 15:03:33;;;;;;;3.90;1.12;;;13.20;67.40;;;;;;2347354;53;21895;-77
2022/02/05 15:06:04;;;;;;;3.72;1.10;;;13.10;67.20;;;;;;2362501;53;20984;-76
2022/02/05 15:08:30;;;;;;;5.07;1.40;;;13.00;66.70;;;;;;2507587;53;21851;-75
2022/02/05 15:10:58;;;;;;;5.20;1.40;;;12.90;66.70;;;;;;2343099;54;20933;-76
2022/02/05 15:13:24;;;;;;;3.35;1.20;;;12.80;66.60;;;;;;2590012;53;21427;-75
2022/02/05 15:15:53;;;;;;;4.57;1.50;;;12.60;66.40;;;;;;2349945;53;20990;-75
2022/02/05 15:18:21;;;;;;;4.47;1.40;;;12.50;66.50;;;;;;2336292;53;20957;-76
2022/02/05 15:20:47;;;;;;;5.40;1.27;;;12.40;66.60;;;;;;2346694;53;20942;-75
2022/02/05 15:23:32;;;;;;;5.20;1.75;;;12.30;66.80;;;;;;2344108;54;20953;-76
2022/02/05 15:26:02;;;;;;;5.45;2.03;;;12.20;65.60;;;;;;2341276;54;21139;-73
2022/02/05 15:28:28;;;;;;;6.00;2.12;;;12.10;67.10;;;;;;2371313;53;21559;-74
2022/02/05 15:30:54;;;;;;;3.60;1.95;;;12.00;67.40;;;;;;2387587;53;21816;-73
2022/02/05 15:33:22;;;;;;;6.85;2.90;;;12.00;67.50;;;;;;2535865;53;21536;-73
2022/02/05 15:35:49;;;;;;;13.60;7.25;;;11.90;67.60;;;;;;2347291;54;21414;-74
2022/02/05 15:38:18;;;;;;;9.52;4.75;;;11.90;67.80;;;;;;2343339;54;20956;-74
2022/02/05 15:46:14;;;;;;;5.40;2.33;;;11.80;68.40;;;;;;2345054;54;21029;-71
2022/02/05 15:48:41;;;;;;;6.62;2.03;;;11.70;68.60;;;;;;2344953;54;21867;-74
2022/02/05 15:51:08;;;;;;;6.05;1.70;;;11.70;68.30;;;;;;2344888;54;20952;-72
2022/02/05 15:53:41;;;;;;;9.73;1.80;;;11.70;68.40;;;;;;2344535;54;20912;-72
2022/02/05 15:56:11;;;;;;;5.30;1.90;;;11.70;68.20;;;;;;2448717;53;20983;-74
2022/02/05 15:58:46;;;;;;;3.75;1.98;;;11.70;68.20;;;;;;2346248;53;21061;-73
2022/02/05 16:01:15;;;;;;;3.95;1.90;;;11.60;68.30;;;;;;2346000;53;21049;-72